createdAt,value
2023-04-02T00:00:23.941Z,97244.13
2023-04-02T00:04:22.437Z,97247.16
2023-04-02T00:07:34.305Z,97249.34
2023-04-02T00:10:50.710Z,97250.16
2023-04-02T00:13:57.419Z,97253.00
2023-04-02T00:17:07.597Z,97254.59
2023-04-02T00:20:23.057Z,97255.41
2023-04-02T00:23:29.666Z,97255.41
2023-04-02T00:26:41.573Z,97259.47
2023-04-02T00:29:53.052Z,97259.91
2023-04-02T00:33:00.980Z,97263.13
2023-04-02T00:36:12.170Z,97261.31
2023-04-02T00:39:27.496Z,97260.09
2023-04-02T00:42:34.625Z,97262.34
2023-04-02T00:45:51.309Z,97265.56
2023-04-02T00:49:08.264Z,97261.31
2023-04-02T00:52:25.202Z,97264.53
2023-04-02T00:55:41.975Z,97268.59
2023-04-02T00:58:54.864Z,97265.34
2023-04-02T01:02:22.840Z,97261.94
2023-04-02T01:05:29.920Z,97257.91
2023-04-02T01:08:59.753Z,97264.75
2023-04-02T01:12:47.245Z,97270.19
2023-04-02T01:16:07.716Z,97268.38
2023-04-02T01:19:52.875Z,97268.97
2023-04-02T01:23:10.373Z,97273.63
2023-04-02T01:26:48.222Z,97267.59
2023-04-02T01:30:05.474Z,97274.84
2023-04-02T01:33:12.719Z,97278.91
2023-04-02T01:36:34.351Z,97279.50
2023-04-02T01:40:17.960Z,97282.72
2023-04-02T01:43:40.148Z,97279.09
2023-04-02T01:46:52.762Z,97282.34
2023-04-02T01:50:06.239Z,97283.53
2023-04-02T01:53:18.863Z,97275.84
2023-04-02T01:56:26.018Z,97283.13
2023-04-02T01:59:36.947Z,97283.97
2023-04-02T02:02:54.506Z,97290.66
2023-04-02T02:06:04.543Z,97292.66
2023-04-02T02:09:21.445Z,97292.06
2023-04-02T02:12:28.605Z,97293.66
2023-04-02T02:15:39.400Z,97292.06
2023-04-02T02:18:54.337Z,97291.47
2023-04-02T02:22:12.486Z,97297.13
2023-04-02T02:25:24.040Z,97295.09
2023-04-02T02:28:36.707Z,97302.63
2023-04-02T02:31:48.931Z,97303.19
2023-04-02T02:35:11.520Z,97300.59
2023-04-02T02:38:54.098Z,97308.25
2023-04-02T02:42:27.818Z,97309.25
2023-04-02T02:45:42.249Z,97306.81
2023-04-02T02:48:49.748Z,97312.91
2023-04-02T02:52:09.643Z,97317.34
2023-04-02T02:55:32.859Z,97319.78
2023-04-02T02:58:47.020Z,97319.56
2023-04-02T03:02:09.981Z,97321.00
2023-04-02T03:05:22.213Z,97334.16
2023-04-02T03:08:40.670Z,97321.00
2023-04-02T03:12:03.037Z,97332.13
2023-04-02T03:15:26.316Z,97332.31
2023-04-02T03:18:49.288Z,97334.91
2023-04-02T03:22:08.840Z,97342.19
2023-04-02T03:25:37.433Z,97335.53
2023-04-02T03:28:53.338Z,97332.06
2023-04-02T03:32:10.700Z,97338.97
2023-04-02T03:35:31.894Z,97344.03
2023-04-02T03:38:48.651Z,97349.69
2023-04-02T03:42:08.608Z,97331.50
2023-04-02T03:45:25.426Z,97359.81
2023-04-02T03:48:44.094Z,97355.78
2023-04-02T03:52:03.704Z,97352.75
2023-04-02T03:55:20.798Z,97358.66
2023-04-02T03:58:44.232Z,97367.56
2023-04-02T04:02:01.857Z,97371.41
2023-04-02T04:05:29.613Z,97371.22
2023-04-02T04:08:51.067Z,97369.59
2023-04-02T04:12:14.090Z,97371.78
2023-04-02T04:15:32.142Z,97378.22
2023-04-02T04:18:53.113Z,97383.50
2023-04-02T04:22:14.468Z,97390.34
2023-04-02T04:25:30.108Z,97395.38
2023-04-02T04:29:00.770Z,97393.53
2023-04-02T04:32:32.313Z,97400.59
2023-04-02T04:35:54.650Z,97401.19
2023-04-02T04:39:14.796Z,97402.59
2023-04-02T04:42:33.111Z,97404.81
2023-04-02T04:45:51.845Z,97413.50
2023-04-02T04:49:14.342Z,97411.47
2023-04-02T04:52:28.955Z,97415.53
2023-04-02T04:55:43.267Z,97420.16
2023-04-02T04:58:59.713Z,97421.75
2023-04-02T05:02:17.707Z,97424.75
2023-04-02T05:05:34.374Z,97428.66
2023-04-02T05:08:52.197Z,97433.13
2023-04-02T05:12:15.164Z,97439.97
2023-04-02T05:15:32.823Z,97440.41
2023-04-02T05:18:50.746Z,97449.09
2023-04-02T05:22:15.826Z,97450.75
2023-04-02T05:25:31.460Z,97457.84
2023-04-02T05:28:52.026Z,97457.25
2023-04-02T05:32:09.788Z,97457.47
2023-04-02T05:35:23.929Z,97472.81
2023-04-02T05:38:39.953Z,97469.72
2023-04-02T05:41:49.588Z,97479.78
2023-04-02T05:45:26.183Z,97479.09
2023-04-02T05:48:43.562Z,97495.06
2023-04-02T05:52:01.881Z,97491.59
2023-04-02T05:55:39.349Z,97498.59
2023-04-02T05:58:54.254Z,97510.66
2023-04-02T06:02:23.430Z,97508.34
2023-04-02T06:05:41.057Z,97517.16
2023-04-02T06:09:01.096Z,97519.09
2023-04-02T06:12:26.508Z,97533.59
2023-04-02T06:15:36.672Z,97544.59
2023-04-02T06:18:49.945Z,97545.25
2023-04-02T06:22:11.518Z,97563.56
2023-04-02T06:25:28.723Z,97566.28
2023-04-02T06:28:49.304Z,97577.78
2023-04-02T06:32:02.917Z,97579.97
2023-04-02T06:35:16.115Z,97591.59
2023-04-02T06:38:34.160Z,97604.84
2023-04-02T06:41:40.911Z,97611.44
2023-04-02T06:45:17.408Z,97617.78
2023-04-02T06:48:37.362Z,97626.97
2023-04-02T06:51:48.644Z,97634.34
2023-04-02T06:54:54.670Z,97642.19
2023-04-02T06:58:01.959Z,97637.59
2023-04-02T07:01:18.140Z,97648.69
2023-04-02T07:04:26.605Z,97653.41
2023-04-02T07:07:33.818Z,97653.72
2023-04-02T07:10:43.238Z,97648.66
2023-04-02T07:13:50.452Z,97663.59
2023-04-02T07:17:00.462Z,97669.78
2023-04-02T07:20:07.089Z,97672.41
2023-04-02T07:23:16.962Z,97685.81
2023-04-02T07:26:28.570Z,97692.38
2023-04-02T07:29:35.170Z,97703.03
2023-04-02T07:32:43.679Z,97706.75
2023-04-02T07:35:56.287Z,97698.44
2023-04-02T07:39:02.244Z,97721.47
2023-04-02T07:42:09.038Z,97715.84
2023-04-02T07:45:15.920Z,97722.88
2023-04-02T07:48:25.246Z,97732.38
2023-04-02T07:51:31.151Z,97730.97
2023-04-02T07:54:38.671Z,97738.97
2023-04-02T07:57:53.554Z,97749.63
2023-04-02T08:01:00.545Z,97749.72
2023-04-02T08:04:10.181Z,97757.84
2023-04-02T08:07:17.211Z,97762.91
2023-04-02T08:10:23.451Z,97765.72
2023-04-02T08:13:30.181Z,97784.69
2023-04-02T08:16:49.153Z,97800.03
2023-04-02T08:20:01.467Z,97790.25
2023-04-02T08:23:08.904Z,97809.34
2023-04-02T08:26:22.251Z,97815.72
2023-04-02T08:29:32.365Z,97825.03
2023-04-02T08:32:41.326Z,97830.75
2023-04-02T08:35:50.866Z,97836.13
2023-04-02T08:38:57.666Z,97838.06
2023-04-02T08:42:21.282Z,97846.53
2023-04-02T08:45:50.392Z,97847.69
2023-04-02T08:49:04.091Z,97847.16
2023-04-02T08:52:28.075Z,97848.31
2023-04-02T08:55:48.007Z,97859.91
2023-04-02T08:59:00.824Z,97866.94
2023-04-02T09:02:32.070Z,97865.25
2023-04-02T09:05:46.124Z,97869.19
2023-04-02T09:09:00.528Z,97879.34
2023-04-02T09:12:10.212Z,97884.38
2023-04-02T09:15:32.045Z,97884.06
2023-04-02T09:18:41.821Z,97880.84
2023-04-02T09:22:09.241Z,97905.38
2023-04-02T09:25:22.901Z,97907.00
2023-04-02T09:28:30.456Z,97899.81
2023-04-02T09:31:45.277Z,97909.78
2023-04-02T09:34:51.319Z,97914.22
2023-04-02T09:38:24.666Z,97925.75
2023-04-02T09:41:37.796Z,97929.34
2023-04-02T09:44:44.601Z,97927.84
2023-04-02T09:47:52.061Z,97942.75
2023-04-02T09:51:17.656Z,97943.91
2023-04-02T09:54:23.536Z,97947.47
2023-04-02T09:57:33.722Z,97953.22
2023-04-02T10:00:42.195Z,97963.53
2023-04-02T10:03:49.282Z,97969.75
2023-04-02T10:06:58.212Z,97961.91
2023-04-02T10:10:21.585Z,97974.00
2023-04-02T10:13:36.725Z,97980.66
2023-04-02T10:16:51.348Z,97980.31
2023-04-02T10:20:06.603Z,97991.16
2023-04-02T10:23:20.351Z,97989.41
2023-04-02T10:26:51.399Z,97994.34
2023-04-02T10:30:19.406Z,98000.75
2023-04-02T10:33:36.124Z,97992.28
2023-04-02T10:36:58.305Z,98006.66
2023-04-02T10:40:17.295Z,98005.50
2023-04-02T10:44:20.242Z,98013.38
2023-04-02T10:47:45.443Z,98020.31
2023-04-02T10:51:03.356Z,98018.38
2023-04-02T10:54:37.327Z,98023.00
2023-04-02T10:57:46.513Z,98029.38
2023-04-02T11:01:01.650Z,98029.81
2023-04-02T11:04:25.203Z,98045.84
2023-04-02T11:07:41.931Z,98046.53
2023-04-02T11:10:56.247Z,98054.94
2023-04-02T11:14:09.781Z,98046.97
2023-04-02T11:17:20.964Z,98038.44
2023-04-02T11:21:31.801Z,98065.63
2023-04-02T11:24:48.630Z,98062.63
2023-04-02T11:27:55.693Z,98062.22
2023-04-02T11:31:03.330Z,98080.31
2023-04-02T11:34:09.634Z,98082.53
2023-04-02T11:37:38.544Z,98080.72
2023-04-02T11:40:54.992Z,98082.59
2023-04-02T11:44:05.742Z,98084.25
2023-04-02T11:47:26.619Z,98086.53
2023-04-02T11:50:36.290Z,98084.34
2023-04-02T11:53:46.578Z,98105.56
2023-04-02T11:57:08.232Z,98086.84
2023-04-02T12:00:53.289Z,98099.38
2023-04-02T12:04:53.240Z,98097.22
2023-04-02T12:08:27.678Z,98115.06
2023-04-02T12:11:41.761Z,98111.25
2023-04-02T12:14:51.505Z,98115.44
2023-04-02T12:18:15.836Z,98093.16
2023-04-02T12:21:29.889Z,98116.66
2023-04-02T12:24:36.896Z,98135.78
2023-04-02T12:27:46.729Z,98128.69
2023-04-02T12:31:06.170Z,98120.94
2023-04-02T12:34:19.862Z,98128.97
2023-04-02T12:37:30.932Z,98138.53
2023-04-02T12:40:37.170Z,98139.13
2023-04-02T12:43:46.616Z,98138.31
2023-04-02T12:46:55.727Z,98140.00
2023-04-02T12:50:06.073Z,98149.84
2023-04-02T12:53:27.335Z,98149.69
2023-04-02T12:56:34.201Z,98158.34
2023-04-02T12:59:46.688Z,98161.97
2023-04-02T13:02:55.910Z,98167.75
2023-04-02T13:06:02.357Z,98167.13
2023-04-02T13:09:29.701Z,98168.28
2023-04-02T13:12:39.982Z,98180.72
2023-04-02T13:16:03.064Z,98171.41
2023-04-02T13:19:33.839Z,98168.50
2023-04-02T13:22:40.590Z,98188.09
2023-04-02T13:25:46.572Z,98188.84
2023-04-02T13:29:04.123Z,98193.38
2023-04-02T13:32:16.472Z,98196.38
2023-04-02T13:35:23.209Z,98196.47
2023-04-02T13:38:29.181Z,98195.53
2023-04-02T13:41:44.349Z,98200.94
2023-04-02T13:44:50.337Z,98185.63
2023-04-02T13:48:01.442Z,98193.25
2023-04-02T13:51:07.516Z,98205.03
2023-04-02T13:54:23.998Z,98195.19
2023-04-02T13:57:29.944Z,98204.47
2023-04-02T14:00:41.289Z,98214.16
2023-04-02T14:03:50.425Z,98212.41
2023-04-02T14:07:37.189Z,98220.53
2023-04-02T14:11:05.989Z,98232.66
2023-04-02T14:14:48.835Z,98235.13
2023-04-02T14:18:18.406Z,98236.47
2023-04-02T14:21:47.773Z,98240.94
2023-04-02T14:25:10.027Z,98246.16
2023-04-02T14:28:38.333Z,98255.16
2023-04-02T14:31:55.813Z,98257.75
2023-04-02T14:35:17.209Z,98260.88
2023-04-02T14:38:42.306Z,98260.94
2023-04-02T14:42:02.629Z,98266.50
2023-04-02T14:45:21.102Z,98271.84
2023-04-02T14:48:51.486Z,98274.78
2023-04-02T14:52:06.983Z,98287.72
2023-04-02T14:55:34.291Z,98285.34
2023-04-02T14:58:48.834Z,98294.94
2023-04-02T15:02:04.683Z,98288.41
2023-04-02T15:05:23.236Z,98293.50
2023-04-02T15:08:36.395Z,98293.53
2023-04-02T15:11:54.362Z,98293.56
2023-04-02T15:15:24.333Z,98299.53
2023-04-02T15:18:35.776Z,98301.34
2023-04-02T15:22:09.274Z,98308.91
2023-04-02T15:25:32.682Z,98309.75
2023-04-02T15:28:52.120Z,98306.91
2023-04-02T15:32:15.372Z,98311.25
2023-04-02T15:35:39.050Z,98325.25
2023-04-02T15:38:50.673Z,98329.22
2023-04-02T15:42:16.433Z,98334.00
2023-04-02T15:45:43.896Z,98336.44
2023-04-02T15:49:20.438Z,98334.22
2023-04-02T15:52:39.510Z,98348.34
2023-04-02T15:55:57.594Z,98344.69
2023-04-02T15:59:42.656Z,98346.38
2023-04-02T16:03:23.228Z,98345.75
2023-04-02T16:06:48.336Z,98359.84
2023-04-02T16:10:15.779Z,98353.81
2023-04-02T16:13:32.855Z,98347.38
2023-04-02T16:16:43.285Z,98371.13
2023-04-02T16:20:00.015Z,98378.09
2023-04-02T16:23:16.156Z,98373.53
2023-04-02T16:26:52.444Z,98381.50
2023-04-02T16:30:39.845Z,98380.13
2023-04-02T16:34:07.360Z,98381.66
2023-04-02T16:37:31.862Z,98388.63
2023-04-02T16:41:00.541Z,98387.00
2023-04-02T16:44:35.371Z,98402.09
2023-04-02T16:48:06.234Z,98397.69
2023-04-02T16:51:24.259Z,98403.19
2023-04-02T16:54:47.833Z,98409.91
2023-04-02T16:58:17.355Z,98416.09
2023-04-02T17:01:43.462Z,98419.78
2023-04-02T17:05:08.081Z,98429.50
2023-04-02T17:08:26.192Z,98435.69
2023-04-02T17:11:47.731Z,98421.72
2023-04-02T17:15:03.241Z,98435.56
2023-04-02T17:18:21.162Z,98442.81
2023-04-02T17:21:30.655Z,98446.53
2023-04-02T17:24:47.443Z,98459.94
2023-04-02T17:27:59.435Z,98451.97
2023-04-02T17:31:16.692Z,98459.47
2023-04-02T17:34:25.931Z,98453.56
2023-04-02T17:37:46.147Z,98470.03
2023-04-02T17:41:08.334Z,98477.31
2023-04-02T17:44:59.315Z,98473.88
2023-04-02T17:48:18.341Z,98478.63
2023-04-02T17:51:38.509Z,98480.59
2023-04-02T17:55:00.841Z,98479.03
2023-04-02T17:58:31.657Z,98486.28
2023-04-02T18:01:57.572Z,98488.59
2023-04-02T18:05:25.265Z,98490.13
2023-04-02T18:08:52.267Z,98489.63
2023-04-02T18:12:24.124Z,98498.09
2023-04-02T18:16:05.085Z,98501.03
2023-04-02T18:19:20.693Z,98501.91
2023-04-02T18:22:41.296Z,98504.88
2023-04-02T18:26:05.683Z,98508.03
2023-04-02T18:29:33.227Z,98518.63
2023-04-02T18:33:07.626Z,98515.25
2023-04-02T18:36:31.407Z,98513.38
2023-04-02T18:40:01.792Z,98518.28
2023-04-02T18:43:29.338Z,98520.81
2023-04-02T18:46:52.390Z,98528.81
2023-04-02T18:50:19.368Z,98526.38
2023-04-02T18:53:32.392Z,98528.50
2023-04-02T18:56:43.465Z,98533.06
2023-04-02T19:00:00.597Z,98539.47
2023-04-02T19:03:21.763Z,98537.16
2023-04-02T19:06:40.101Z,98542.38
2023-04-02T19:09:56.134Z,98556.19
2023-04-02T19:13:03.419Z,98554.13
2023-04-02T19:16:51.101Z,98542.75
2023-04-02T19:20:15.556Z,98546.91
2023-04-02T19:23:47.401Z,98549.41
2023-04-02T19:27:09.846Z,98554.56
2023-04-02T19:30:42.114Z,98561.09
2023-04-02T19:33:58.480Z,98555.34
2023-04-02T19:37:18.249Z,98563.94
2023-04-02T19:40:45.974Z,98562.03
2023-04-02T19:43:55.395Z,98569.44
2023-04-02T19:47:03.097Z,98567.06
2023-04-02T19:50:11.732Z,98574.59
2023-04-02T19:53:20.133Z,98576.78
2023-04-02T19:56:27.157Z,98577.16
2023-04-02T19:59:37.226Z,98570.72
2023-04-02T20:02:43.072Z,98583.97
2023-04-02T20:05:50.100Z,98579.34
2023-04-02T20:08:56.476Z,98580.25
2023-04-02T20:12:03.657Z,98559.00
2023-04-02T20:15:14.311Z,98579.38
2023-04-02T20:18:21.811Z,98579.38
2023-04-02T20:21:27.885Z,98587.22
2023-04-02T20:24:37.921Z,98587.34
2023-04-02T20:27:48.195Z,98587.00
2023-04-02T20:31:09.832Z,98587.97
2023-04-02T20:34:16.849Z,98595.91
2023-04-02T20:37:24.711Z,98597.41
2023-04-02T20:40:33.285Z,98606.19
2023-04-02T20:43:43.582Z,98612.25
2023-04-02T20:46:53.498Z,98610.22
2023-04-02T20:50:02.639Z,98615.72
2023-04-02T20:53:09.157Z,98611.06
2023-04-02T20:56:23.554Z,98619.69
2023-04-02T20:59:30.117Z,98628.19
2023-04-02T21:02:40.214Z,98626.69
2023-04-02T21:05:47.762Z,98623.00
2023-04-02T21:08:56.073Z,98623.28
2023-04-02T21:12:01.900Z,98630.28
2023-04-02T21:15:12.640Z,98630.41
2023-04-02T21:18:21.604Z,98632.88
2023-04-02T21:21:29.076Z,98628.78
2023-04-02T21:24:35.702Z,98630.28
2023-04-02T21:27:42.720Z,98632.47
2023-04-02T21:30:49.541Z,98627.28
2023-04-02T21:34:02.934Z,98638.00
2023-04-02T21:37:08.815Z,98639.50
2023-04-02T21:40:15.604Z,98640.03
2023-04-02T21:43:21.626Z,98634.25
2023-04-02T21:46:32.464Z,98643.75
2023-04-02T21:49:41.079Z,98639.75
2023-04-02T21:52:47.740Z,98645.09
2023-04-02T21:55:53.751Z,98646.44
2023-04-02T21:59:02.454Z,98648.06
2023-04-02T22:02:08.355Z,98655.47
2023-04-02T22:05:18.253Z,98650.50
2023-04-02T22:08:25.860Z,98649.22
2023-04-02T22:11:37.506Z,98659.09
2023-04-02T22:14:43.297Z,98670.19
2023-04-02T22:17:50.196Z,98670.66
2023-04-02T22:21:01.988Z,98679.97
2023-04-02T22:24:14.377Z,98672.28
2023-04-02T22:27:20.307Z,98678.19
2023-04-02T22:30:30.156Z,98678.75
2023-04-02T22:33:37.363Z,98683.25
2023-04-02T22:36:46.721Z,98686.16
2023-04-02T22:39:52.582Z,98691.78
2023-04-02T22:43:00.292Z,98689.16
2023-04-02T22:46:06.816Z,98694.53
2023-04-02T22:49:19.552Z,98697.63
2023-04-02T22:52:28.214Z,98706.41
2023-04-02T22:55:34.996Z,98701.59
2023-04-02T22:58:41.896Z,98693.09
2023-04-02T23:01:48.588Z,98704.72
2023-04-02T23:04:54.502Z,98712.72
2023-04-02T23:08:03.863Z,98709.09
2023-04-02T23:11:12.879Z,98709.22
2023-04-02T23:14:19.607Z,98711.69
2023-04-02T23:17:25.675Z,98707.13
2023-04-02T23:20:32.486Z,98703.69
2023-04-02T23:23:41.173Z,98714.16
2023-04-02T23:26:48.093Z,98717.84
2023-04-02T23:29:54.965Z,98713.34
2023-04-02T23:33:03.461Z,98702.34
2023-04-02T23:36:12.103Z,98714.16
2023-04-02T23:39:23.252Z,98708.44
2023-04-02T23:42:29.092Z,98711.25
2023-04-02T23:45:35.877Z,98704.53
2023-04-02T23:48:42.613Z,98703.88
2023-04-02T23:51:49.629Z,98715.84
2023-04-02T23:54:58.075Z,98707.63
2023-04-02T23:58:04.858Z,98706.09
